Knoxville, Georgia
Current Conditions -  °F | °C
As of 3:15 PM on Thursday 30 Oct 2014 (Local Time) from KPXE Reporting Station
Clear Clear  
Wind Chill: 73°   Ceiling: Unl
Heat Index: 73°   Visibility: 10mi
Dew Point: 46°   Wind: 6mph
Humidity: 38%   Direction: 60°ENE
Pressure: 29.98"   Gusts: NA
Location:  32.72°N, 84°W
Report Text: KPXE 301915Z AUTO 06005KT 10SM CLR 23/08 A2998 RMK AO2 T02270075
Loading
Personal Weather Stations






























Interactive Weather Map
Tropical Storm Tracking
New forecast layout! Learn more

10-Day Weather Forecast

Advertisements
Track Severe Weather on mobile